createdAt,value
2018-12-16T00:00:35.531Z,100127.94
2018-12-16T00:01:14.949Z,100115.70
2018-12-16T00:01:49.604Z,100118.68
2018-12-16T00:02:24.324Z,100121.59
2018-12-16T00:02:59.361Z,100122.42
2018-12-16T00:03:33.971Z,100118.63
2018-12-16T00:04:08.936Z,100113.50
2018-12-16T00:04:49.919Z,100111.87
2018-12-16T00:05:21.444Z,100116.55
2018-12-16T00:05:56.133Z,100112.30
2018-12-16T00:06:30.841Z,100102.16
2018-12-16T00:07:05.441Z,100112.34
2018-12-16T00:07:40.221Z,100112.31
2018-12-16T00:08:14.940Z,100110.59
2018-12-16T00:08:49.619Z,100113.12
2018-12-16T00:09:24.548Z,100105.92
2018-12-16T00:09:59.225Z,100104.63
2018-12-16T00:10:33.878Z,100103.00
2018-12-16T00:11:08.694Z,100107.24
2018-12-16T00:11:43.531Z,100100.48
2018-12-16T00:12:18.247Z,100080.05
2018-12-16T00:12:52.939Z,100110.23
2018-12-16T00:13:27.635Z,100106.47
2018-12-16T00:14:02.348Z,100103.91
2018-12-16T00:14:37.102Z,100103.84
2018-12-16T00:15:12.099Z,100100.50
2018-12-16T00:15:46.842Z,100103.03
2018-12-16T00:16:21.461Z,100106.86
2018-12-16T00:16:56.235Z,100105.59
2018-12-16T00:17:30.988Z,100108.55
2018-12-16T00:18:05.654Z,100100.06
2018-12-16T00:18:40.445Z,100102.18
2018-12-16T00:19:15.450Z,100102.66
2018-12-16T00:19:50.250Z,100105.16
2018-12-16T00:20:24.903Z,100105.61
2018-12-16T00:20:59.550Z,100102.21
2018-12-16T00:21:34.197Z,100106.88
2018-12-16T00:22:09.184Z,100102.69
2018-12-16T00:22:44.511Z,100107.33
2018-12-16T00:23:19.176Z,100104.72
2018-12-16T00:23:53.862Z,100098.36
2018-12-16T00:24:28.507Z,100099.62
2018-12-16T00:25:03.434Z,100090.30
2018-12-16T00:25:38.115Z,100098.78
2018-12-16T00:26:15.778Z,100099.59
2018-12-16T00:27:01.664Z,100101.72
2018-12-16T00:27:36.286Z,100101.33
2018-12-16T00:28:11.398Z,100096.64
2018-12-16T00:28:46.210Z,100103.84
2018-12-16T00:29:21.304Z,100100.05
2018-12-16T00:29:56.013Z,100098.37
2018-12-16T00:30:30.636Z,100093.23
2018-12-16T00:31:05.247Z,100102.58
2018-12-16T00:31:40.187Z,100098.70
2018-12-16T00:32:14.887Z,100101.33
2018-12-16T00:32:49.548Z,100097.91
2018-12-16T00:33:24.348Z,100105.56
2018-12-16T00:33:58.998Z,100097.92
2018-12-16T00:34:33.674Z,100087.36
2018-12-16T00:35:08.846Z,100087.77
2018-12-16T00:35:43.602Z,100092.85
2018-12-16T00:36:18.487Z,100092.89
2018-12-16T00:36:53.116Z,100087.39
2018-12-16T00:37:28.040Z,100089.47
2018-12-16T00:38:02.987Z,100092.86
2018-12-16T00:38:37.649Z,100085.25
2018-12-16T00:39:12.714Z,100083.09
2018-12-16T00:39:47.544Z,100080.09
2018-12-16T00:40:22.226Z,100085.19
2018-12-16T00:40:56.847Z,100086.02
2018-12-16T00:41:31.484Z,100078.80
2018-12-16T00:42:06.167Z,100079.64
2018-12-16T00:42:40.857Z,100083.03
2018-12-16T00:43:15.674Z,100085.58
2018-12-16T00:43:50.310Z,100079.64
2018-12-16T00:44:24.964Z,100080.09
2018-12-16T00:44:59.604Z,100080.92
2018-12-16T00:45:34.448Z,100078.34
2018-12-16T00:46:09.181Z,100072.44
2018-12-16T00:46:43.959Z,100080.06
2018-12-16T00:47:18.624Z,100077.13
2018-12-16T00:47:53.287Z,100085.19
2018-12-16T00:48:27.912Z,100085.63
2018-12-16T00:49:02.524Z,100082.21
2018-12-16T00:49:37.150Z,100087.34
2018-12-16T00:50:12.044Z,100088.64
2018-12-16T00:50:46.846Z,100090.74
2018-12-16T00:51:21.677Z,100087.80
2018-12-16T00:51:57.327Z,100093.30
2018-12-16T00:52:36.451Z,100089.91
2018-12-16T00:53:08.647Z,100095.00
2018-12-16T00:53:43.510Z,100093.30
2018-12-16T00:54:18.192Z,100088.64
2018-12-16T00:54:52.829Z,100091.69
2018-12-16T00:55:27.451Z,100096.33
2018-12-16T00:56:02.155Z,100100.11
2018-12-16T00:56:36.785Z,100098.44
2018-12-16T00:57:11.625Z,100095.91
2018-12-16T00:57:46.428Z,100101.43
2018-12-16T00:58:21.094Z,100080.18
2018-12-16T00:58:55.685Z,100098.02
2018-12-16T00:59:30.303Z,100103.08
2018-12-16T01:00:10.052Z,100107.34
2018-12-16T01:00:45.210Z,100107.72
2018-12-16T01:01:20.565Z,100111.94
2018-12-16T01:01:55.201Z,100110.23
2018-12-16T01:02:35.013Z,100115.31
2018-12-16T01:03:10.118Z,100120.05
2018-12-16T01:03:44.900Z,100123.00
2018-12-16T01:04:20.841Z,100122.97
2018-12-16T01:04:55.709Z,100120.02
2018-12-16T01:05:30.601Z,100113.73
2018-12-16T01:06:06.118Z,100120.91
2018-12-16T01:06:40.819Z,100128.53
2018-12-16T01:07:15.485Z,100124.69
2018-12-16T01:07:51.012Z,100126.36
2018-12-16T01:08:26.566Z,100123.02
2018-12-16T01:09:01.256Z,100127.69
2018-12-16T01:09:35.900Z,100126.39
2018-12-16T01:10:12.126Z,100128.92
2018-12-16T01:10:46.846Z,100129.35
2018-12-16T01:11:21.603Z,100134.47
2018-12-16T01:11:56.385Z,100132.78
2018-12-16T01:12:31.240Z,100134.87
2018-12-16T01:13:05.953Z,100139.09
2018-12-16T01:13:40.618Z,100133.11
2018-12-16T01:14:15.595Z,100135.64
2018-12-16T01:14:50.250Z,100137.33
2018-12-16T01:15:25.008Z,100133.53
2018-12-16T01:15:59.893Z,100142.00
2018-12-16T01:16:35.020Z,100136.90
2018-12-16T01:17:11.265Z,100133.94
2018-12-16T01:17:46.042Z,100134.77
2018-12-16T01:18:20.703Z,100133.52
2018-12-16T01:18:55.339Z,100132.25
2018-12-16T01:19:29.945Z,100139.89
2018-12-16T01:20:06.836Z,100139.92
2018-12-16T01:20:41.535Z,100136.59
2018-12-16T01:21:16.669Z,100131.52
2018-12-16T01:21:51.862Z,100138.67
2018-12-16T01:22:26.502Z,100139.09
2018-12-16T01:23:01.433Z,100134.45
2018-12-16T01:23:36.043Z,100137.86
2018-12-16T01:24:10.818Z,100136.16
2018-12-16T01:24:45.636Z,100143.34
2018-12-16T01:25:20.763Z,100132.73
2018-12-16T01:25:55.377Z,100142.92
2018-12-16T01:26:30.041Z,100139.11
2018-12-16T01:27:05.307Z,100135.25
2018-12-16T01:27:40.020Z,100137.80
2018-12-16T01:28:14.940Z,100139.53
2018-12-16T01:28:49.552Z,100141.21
2018-12-16T01:29:24.363Z,100134.02
2018-12-16T01:29:58.961Z,100142.55
2018-12-16T01:30:33.692Z,100145.45
2018-12-16T01:31:08.402Z,100147.99
2018-12-16T01:31:44.086Z,100139.15
2018-12-16T01:32:18.741Z,100139.55
2018-12-16T01:32:53.379Z,100138.25
2018-12-16T01:33:34.377Z,100145.90
2018-12-16T01:34:09.105Z,100142.48
2018-12-16T01:34:44.029Z,100134.00
2018-12-16T01:35:18.685Z,100130.14
2018-12-16T01:35:53.284Z,100130.64
2018-12-16T01:36:27.918Z,100132.33
2018-12-16T01:37:02.531Z,100128.47
2018-12-16T01:37:38.348Z,100124.22
2018-12-16T01:38:13.165Z,100128.89
2018-12-16T01:38:47.994Z,100124.23
2018-12-16T01:39:23.224Z,100114.89
2018-12-16T01:39:57.840Z,100115.77
2018-12-16T01:40:32.471Z,100115.34
2018-12-16T01:41:07.297Z,100122.13
2018-12-16T01:41:42.146Z,100119.19
2018-12-16T01:42:17.186Z,100109.40
2018-12-16T01:42:51.820Z,100112.36
2018-12-16T01:43:26.426Z,100112.00
2018-12-16T01:44:01.042Z,100112.83
2018-12-16T01:44:35.664Z,100108.58
2018-12-16T01:45:10.852Z,100109.85
2018-12-16T01:45:45.584Z,100114.52
2018-12-16T01:46:20.501Z,100108.60
2018-12-16T01:46:55.120Z,100110.32
2018-12-16T01:47:29.734Z,100102.25
2018-12-16T01:48:04.803Z,100109.47
2018-12-16T01:48:39.574Z,100106.52
2018-12-16T01:49:15.063Z,100097.61
2018-12-16T01:49:49.657Z,100099.30
2018-12-16T01:50:24.273Z,100093.79
2018-12-16T01:50:58.885Z,100094.61
2018-12-16T01:51:33.532Z,100095.89
2018-12-16T01:52:08.668Z,100087.86
2018-12-16T01:52:49.971Z,100088.69
2018-12-16T01:53:20.153Z,100084.03
2018-12-16T01:53:54.839Z,100085.74
2018-12-16T01:54:29.427Z,100080.62
2018-12-16T01:55:05.069Z,100080.63
2018-12-16T01:55:39.923Z,100070.05
2018-12-16T01:56:14.945Z,100074.30
2018-12-16T01:56:50.025Z,100068.39
2018-12-16T01:57:24.659Z,100065.39
2018-12-16T01:57:59.270Z,100060.76
2018-12-16T01:58:33.913Z,100065.41
2018-12-16T01:59:08.578Z,100056.92
2018-12-16T01:59:43.376Z,100062.41
2018-12-16T02:00:18.387Z,100059.05
2018-12-16T02:00:53.004Z,100055.64
2018-12-16T02:01:27.611Z,100043.41
2018-12-16T02:02:02.707Z,100047.19
2018-12-16T02:02:37.456Z,100048.05
2018-12-16T02:03:12.224Z,100040.84
2018-12-16T02:03:46.873Z,100037.44
2018-12-16T02:04:21.470Z,100045.07
2018-12-16T02:04:56.057Z,100040.41
2018-12-16T02:05:30.701Z,100036.16
2018-12-16T02:06:05.806Z,100041.67
2018-12-16T02:06:40.597Z,100033.17
2018-12-16T02:07:15.311Z,100040.80
2018-12-16T02:07:49.910Z,100025.98
2018-12-16T02:08:24.491Z,100028.52
2018-12-16T02:08:59.097Z,100031.06
2018-12-16T02:09:34.642Z,100017.50
2018-12-16T02:10:10.285Z,100024.69
2018-12-16T02:10:45.497Z,100018.34
2018-12-16T02:11:20.092Z,100010.30
2018-12-16T02:11:54.685Z,100005.20
2018-12-16T02:12:29.274Z,100006.91
2018-12-16T02:13:04.672Z,99998.86
2018-12-16T02:13:39.793Z,99999.29
2018-12-16T02:14:14.634Z,99999.74
2018-12-16T02:14:49.747Z,99992.09
2018-12-16T02:15:24.620Z,99994.66
2018-12-16T02:15:59.216Z,99990.86
2018-12-16T02:16:34.012Z,99986.16
2018-12-16T02:17:08.777Z,99990.39
2018-12-16T02:17:43.451Z,99982.81
2018-12-16T02:18:18.082Z,99985.34
2018-12-16T02:18:52.684Z,99987.88
2018-12-16T02:19:27.862Z,99989.56
2018-12-16T02:20:02.443Z,99992.95
2018-12-16T02:20:37.067Z,99986.61
2018-12-16T02:21:11.817Z,99989.57
2018-12-16T02:21:46.648Z,99987.89
2018-12-16T02:22:21.278Z,99984.06
2018-12-16T02:22:57.039Z,99987.05
2018-12-16T02:23:32.278Z,99987.03
2018-12-16T02:24:06.876Z,99985.34
2018-12-16T02:24:42.623Z,99980.25
2018-12-16T02:25:17.747Z,99980.68
2018-12-16T02:25:52.332Z,99979.42
2018-12-16T02:26:27.016Z,99978.14
2018-12-16T02:27:01.686Z,99984.48
2018-12-16T02:27:36.276Z,99984.89
2018-12-16T02:28:10.960Z,99983.63
2018-12-16T02:28:45.696Z,99983.21
2018-12-16T02:29:20.395Z,99983.61
2018-12-16T02:29:54.991Z,99944.58
2018-12-16T02:30:29.657Z,99977.67
2018-12-16T02:31:04.725Z,99970.50
2018-12-16T02:31:39.651Z,99971.37
2018-12-16T02:32:14.314Z,99973.04
2018-12-16T02:32:48.897Z,99978.09
2018-12-16T02:33:23.506Z,99974.70
2018-12-16T02:33:58.106Z,99977.24
2018-12-16T02:34:32.776Z,99977.23
2018-12-16T02:35:08.349Z,99973.39
2018-12-16T02:35:43.223Z,99976.80
2018-12-16T02:36:18.009Z,99977.21
2018-12-16T02:36:52.697Z,99968.33
2018-12-16T02:37:27.433Z,99975.12
2018-12-16T02:38:02.016Z,99978.55
2018-12-16T02:38:36.629Z,99972.18
2018-12-16T02:39:11.403Z,99972.59
2018-12-16T02:39:46.100Z,99970.89
2018-12-16T02:40:20.825Z,99979.36
2018-12-16T02:40:55.403Z,99972.56
2018-12-16T02:41:30.101Z,99969.61
2018-12-16T02:42:05.127Z,99964.94
2018-12-16T02:42:39.778Z,99964.53
2018-12-16T02:43:14.648Z,99965.37
2018-12-16T02:43:49.268Z,99967.06
2018-12-16T02:44:23.888Z,99966.22
2018-12-16T02:44:58.495Z,99961.56
2018-12-16T02:45:33.118Z,99960.29
2018-12-16T02:46:07.731Z,99970.03
2018-12-16T02:46:42.783Z,99964.55
2018-12-16T02:47:17.493Z,99962.02
2018-12-16T02:47:52.134Z,99959.06
2018-12-16T02:48:26.733Z,99964.13
2018-12-16T02:49:01.440Z,99966.66
2018-12-16T02:49:36.076Z,99961.99
2018-12-16T02:50:10.758Z,99962.41
2018-12-16T02:50:45.448Z,99968.34
2018-12-16T02:51:20.054Z,99965.38
2018-12-16T02:51:54.649Z,99959.04
2018-12-16T02:52:29.248Z,99961.17
2018-12-16T02:53:04.732Z,99964.14
2018-12-16T02:53:39.938Z,99958.18
2018-12-16T02:54:14.785Z,99953.11
2018-12-16T02:54:49.388Z,99959.04
2018-12-16T02:55:24.362Z,99955.22
2018-12-16T02:55:58.958Z,99957.33
2018-12-16T02:56:33.584Z,99959.89
2018-12-16T02:57:08.756Z,99949.70
2018-12-16T02:57:43.661Z,99951.41
2018-12-16T02:58:18.284Z,99940.82
2018-12-16T02:58:52.925Z,99941.66
2018-12-16T02:59:27.594Z,99942.09
2018-12-16T03:00:02.198Z,99941.69
2018-12-16T03:00:36.928Z,99932.37
2018-12-16T03:01:11.666Z,99933.61
2018-12-16T03:01:48.300Z,99933.61
2018-12-16T03:02:22.921Z,99932.33
2018-12-16T03:02:57.527Z,99933.63
2018-12-16T03:03:32.164Z,99942.08
2018-12-16T03:04:06.950Z,99933.20
2018-12-16T03:04:41.923Z,99935.31
2018-12-16T03:05:16.834Z,99931.06
2018-12-16T03:05:51.540Z,99932.37
2018-12-16T03:06:26.224Z,99932.36
2018-12-16T03:07:00.947Z,99930.64
2018-12-16T03:07:35.549Z,99924.72
2018-12-16T03:08:10.334Z,99919.63
2018-12-16T03:08:45.439Z,99928.12
2018-12-16T03:09:20.140Z,99924.30
2018-12-16T03:09:54.768Z,99930.23
2018-12-16T03:10:29.428Z,99923.86
2018-12-16T03:11:04.960Z,99927.27
2018-12-16T03:11:39.876Z,99912.02
2018-12-16T03:12:14.829Z,99919.20
2018-12-16T03:12:49.560Z,99912.00
2018-12-16T03:13:24.446Z,99909.45
2018-12-16T03:13:59.092Z,99910.74
2018-12-16T03:14:33.805Z,99903.97
2018-12-16T03:15:09.097Z,99899.72
2018-12-16T03:15:44.129Z,99909.02
2018-12-16T03:16:18.943Z,99908.63
2018-12-16T03:16:53.588Z,99906.09
2018-12-16T03:17:28.242Z,99905.66
2018-12-16T03:18:02.917Z,99909.48
2018-12-16T03:18:37.624Z,99903.53
2018-12-16T03:19:12.552Z,99901.83
2018-12-16T03:19:47.281Z,99902.70
2018-12-16T03:20:22.166Z,99898.03
2018-12-16T03:20:56.785Z,99895.48
2018-12-16T03:21:31.433Z,99887.84
2018-12-16T03:22:06.624Z,99893.80
2018-12-16T03:22:41.565Z,99888.28
2018-12-16T03:23:16.405Z,99884.88
2018-12-16T03:23:51.054Z,99886.98
2018-12-16T03:24:25.710Z,99887.42
2018-12-16T03:25:00.315Z,99883.61
2018-12-16T03:25:35.261Z,99883.19
2018-12-16T03:26:10.000Z,99885.73
2018-12-16T03:26:44.852Z,99876.82
2018-12-16T03:27:19.536Z,99891.23
2018-12-16T03:27:54.205Z,99884.89
2018-12-16T03:28:28.826Z,99874.72
2018-12-16T03:29:03.491Z,99880.23
2018-12-16T03:29:38.718Z,99878.52
2018-12-16T03:30:14.049Z,99865.80
2018-12-16T03:30:49.092Z,99860.72
2018-12-16T03:31:23.683Z,99868.77
2018-12-16T03:31:58.312Z,99865.38
2018-12-16T03:32:33.077Z,99859.47
2018-12-16T03:33:07.708Z,99861.98
2018-12-16T03:33:42.987Z,99857.34
2018-12-16T03:34:18.068Z,99859.89
2018-12-16T03:34:52.665Z,99862.86
2018-12-16T03:35:27.278Z,99857.77
2018-12-16T03:36:01.881Z,99856.50
2018-12-16T03:36:36.501Z,99856.48
2018-12-16T03:37:11.532Z,99845.91
2018-12-16T03:37:46.378Z,99854.36
2018-12-16T03:38:21.027Z,99835.74
2018-12-16T03:38:55.664Z,99846.33
2018-12-16T03:39:30.415Z,99845.89
2018-12-16T03:40:05.861Z,99839.11
2018-12-16T03:40:40.540Z,99839.55
2018-12-16T03:41:15.538Z,99842.52
2018-12-16T03:41:50.157Z,99839.13
2018-12-16T03:42:24.768Z,99842.50
2018-12-16T03:42:59.365Z,99835.31
2018-12-16T03:43:33.977Z,99842.08
2018-12-16T03:44:08.669Z,99843.79
2018-12-16T03:44:43.405Z,99836.59
2018-12-16T03:45:18.026Z,99839.55
2018-12-16T03:45:52.652Z,99838.27
2018-12-16T03:46:27.724Z,99838.69
2018-12-16T03:47:02.334Z,99840.37
2018-12-16T03:47:36.958Z,99838.27
2018-12-16T03:48:11.867Z,99839.52
2018-12-16T03:48:46.826Z,99842.50
2018-12-16T03:49:21.538Z,99838.67
2018-12-16T03:49:56.548Z,99842.93
2018-12-16T03:50:31.235Z,99841.25
2018-12-16T03:51:06.297Z,99840.80
2018-12-16T03:51:41.267Z,99843.77
2018-12-16T03:52:16.065Z,99839.95
2018-12-16T03:52:50.686Z,99839.55
2018-12-16T03:53:25.306Z,99842.08
2018-12-16T03:53:59.956Z,99835.72
2018-12-16T03:54:34.678Z,99839.53
2018-12-16T03:55:09.487Z,99837.39
2018-12-16T03:55:44.284Z,99832.75
2018-12-16T03:56:19.414Z,99827.23
2018-12-16T03:56:54.048Z,99827.67
2018-12-16T03:57:28.665Z,99839.08
2018-12-16T03:58:03.278Z,99826.80
2018-12-16T03:58:44.418Z,99830.22
2018-12-16T03:59:19.976Z,99824.30
2018-12-16T03:59:54.583Z,99826.81
2018-12-16T04:00:29.193Z,99824.70
2018-12-16T04:01:04.360Z,99829.36
2018-12-16T04:01:39.671Z,99832.77
2018-12-16T04:02:14.449Z,99827.23
2018-12-16T04:02:49.584Z,99825.56
2018-12-16T04:03:24.179Z,99830.22
2018-12-16T04:03:58.993Z,99819.20
2018-12-16T04:04:33.651Z,99819.64
2018-12-16T04:05:08.635Z,99816.66
2018-12-16T04:05:43.469Z,99816.23
2018-12-16T04:06:18.483Z,99809.89
2018-12-16T04:06:54.051Z,99810.30
2018-12-16T04:07:28.723Z,99809.87
2018-12-16T04:08:03.804Z,99803.09
2018-12-16T04:08:39.721Z,99804.78
2018-12-16T04:09:14.529Z,99803.50
2018-12-16T04:09:49.202Z,99797.55
2018-12-16T04:10:23.801Z,99806.45
2018-12-16T04:10:58.541Z,99800.89
2018-12-16T04:11:33.191Z,99798.80
2018-12-16T04:12:07.973Z,99797.54
2018-12-16T04:12:42.769Z,99798.41
2018-12-16T04:13:17.703Z,99797.97
2018-12-16T04:13:52.349Z,99794.59
2018-12-16T04:14:27.046Z,99796.27
2018-12-16T04:15:01.763Z,99794.97
2018-12-16T04:15:36.631Z,99789.05
2018-12-16T04:16:11.420Z,99793.31
2018-12-16T04:16:46.257Z,99790.78
2018-12-16T04:17:20.876Z,99779.69
2018-12-16T04:17:55.506Z,99789.47
2018-12-16T04:18:30.108Z,99788.64
2018-12-16T04:19:05.209Z,99785.67
2018-12-16T04:19:39.928Z,99786.08
2018-12-16T04:20:14.616Z,99786.09
2018-12-16T04:20:49.265Z,99791.16
2018-12-16T04:21:23.973Z,99787.80
2018-12-16T04:21:58.650Z,99786.94
2018-12-16T04:22:33.279Z,99778.91
2018-12-16T04:23:07.903Z,99790.77
2018-12-16T04:23:42.729Z,99783.53
2018-12-16T04:24:17.432Z,99782.71
2018-12-16T04:24:52.080Z,99785.65
2018-12-16T04:25:27.029Z,99790.30
2018-12-16T04:26:01.615Z,99790.74
2018-12-16T04:26:36.317Z,99792.86
2018-12-16T04:27:10.988Z,99789.87
2018-12-16T04:27:45.877Z,99785.61
2018-12-16T04:28:20.559Z,99787.72
2018-12-16T04:28:55.625Z,99795.78
2018-12-16T04:29:30.264Z,99800.05
2018-12-16T04:30:06.539Z,99800.08
2018-12-16T04:30:41.362Z,99795.76
2018-12-16T04:31:16.068Z,99800.84
2018-12-16T04:31:50.678Z,99793.61
2018-12-16T04:32:25.293Z,99797.03
2018-12-16T04:32:59.918Z,99796.60
2018-12-16T04:33:34.925Z,99799.18
2018-12-16T04:34:09.627Z,99792.00
2018-12-16T04:34:44.444Z,99794.98
2018-12-16T04:35:19.104Z,99795.84
2018-12-16T04:35:53.885Z,99799.22
2018-12-16T04:36:28.496Z,99799.62
2018-12-16T04:37:03.117Z,99795.83
2018-12-16T04:37:37.769Z,99798.80
2018-12-16T04:38:12.741Z,99800.09
2018-12-16T04:38:47.434Z,99793.30
2018-12-16T04:39:22.173Z,99803.47
2018-12-16T04:39:56.807Z,99797.13
2018-12-16T04:40:31.513Z,99792.46
2018-12-16T04:41:06.147Z,99788.16
2018-12-16T04:41:41.049Z,99797.91
2018-12-16T04:42:16.013Z,99791.59
2018-12-16T04:42:50.643Z,99798.39
2018-12-16T04:43:25.255Z,99800.93
2018-12-16T04:43:59.997Z,99794.59
2018-12-16T04:44:34.623Z,99795.83
2018-12-16T04:45:09.770Z,99801.34
2018-12-16T04:45:44.687Z,99794.55
2018-12-16T04:46:19.270Z,99797.52
2018-12-16T04:46:53.914Z,99792.41
2018-12-16T04:47:28.523Z,99794.09
2018-12-16T04:48:03.392Z,99781.36
2018-12-16T04:48:38.204Z,99796.23
2018-12-16T04:49:12.929Z,99794.13
2018-12-16T04:49:47.609Z,99793.73
2018-12-16T04:50:22.235Z,99792.86
2018-12-16T04:50:56.828Z,99790.34
2018-12-16T04:51:31.441Z,99790.78
2018-12-16T04:52:06.204Z,99792.05
2018-12-16T04:52:41.028Z,99787.78
2018-12-16T04:53:15.742Z,99793.28
2018-12-16T04:53:50.552Z,99792.05
2018-12-16T04:54:25.200Z,99781.41
2018-12-16T04:54:59.887Z,99781.44
2018-12-16T04:55:34.981Z,99786.10
2018-12-16T04:56:09.753Z,99780.16
2018-12-16T04:56:44.546Z,99784.02
2018-12-16T04:57:19.155Z,99781.05
2018-12-16T04:57:53.808Z,99785.29
2018-12-16T04:58:28.421Z,99785.27
2018-12-16T04:59:03.042Z,99779.79
2018-12-16T04:59:37.702Z,99774.27
2018-12-16T05:00:12.702Z,99777.66
2018-12-16T05:00:47.561Z,99781.43
2018-12-16T05:01:22.188Z,99777.21
2018-12-16T05:01:56.782Z,99773.01
2018-12-16T05:02:31.411Z,99782.34
2018-12-16T05:03:06.006Z,99781.50
2018-12-16T05:03:41.023Z,99777.27
2018-12-16T05:04:15.672Z,99774.31
2018-12-16T05:04:50.288Z,99775.16
2018-12-16T05:05:24.884Z,99775.17
2018-12-16T05:05:59.489Z,99780.25
2018-12-16T05:06:34.126Z,99774.32
2018-12-16T05:07:09.296Z,99778.56
2018-12-16T05:07:45.273Z,99775.59
2018-12-16T05:08:19.860Z,99772.64
2018-12-16T05:08:54.526Z,99768.41
2018-12-16T05:09:29.145Z,99766.71
2018-12-16T05:10:14.901Z,99768.38
2018-12-16T05:10:49.618Z,99768.80
2018-12-16T05:11:24.661Z,99772.19
2018-12-16T05:11:59.382Z,99760.32
2018-12-16T05:12:34.099Z,99759.06
2018-12-16T05:13:09.018Z,99766.27
2018-12-16T05:13:43.757Z,99764.58
2018-12-16T05:14:18.441Z,99761.61
2018-12-16T05:14:53.083Z,99759.50
2018-12-16T05:15:28.150Z,99767.95
2018-12-16T05:16:02.750Z,99762.86
2018-12-16T05:16:37.653Z,99761.59
2018-12-16T05:17:12.469Z,99759.05
2018-12-16T05:17:47.383Z,99762.02
2018-12-16T05:18:22.068Z,99759.06
2018-12-16T05:18:56.656Z,99754.81
2018-12-16T05:19:31.316Z,99753.12
2018-12-16T05:20:07.071Z,99750.57
2018-12-16T05:20:41.782Z,99760.33
2018-12-16T05:21:16.744Z,99757.76
2018-12-16T05:21:51.331Z,99750.99
2018-12-16T05:22:25.981Z,99749.71
2018-12-16T05:23:00.589Z,99756.08
2018-12-16T05:23:41.658Z,99751.03
2018-12-16T05:24:11.924Z,99753.96
2018-12-16T05:24:46.946Z,99743.81
2018-12-16T05:25:21.672Z,99746.78
2018-12-16T05:25:56.250Z,99741.27
2018-12-16T05:26:30.863Z,99744.24
2018-12-16T05:27:05.469Z,99745.08
2018-12-16T05:27:40.276Z,99752.69
2018-12-16T05:28:14.988Z,99747.20
2018-12-16T05:28:49.781Z,99745.06
2018-12-16T05:29:24.417Z,99739.12
2018-12-16T05:29:59.069Z,99737.88
2018-12-16T05:30:33.676Z,99745.06
2018-12-16T05:31:08.441Z,99743.34
2018-12-16T05:31:43.469Z,99745.89
2018-12-16T05:32:18.326Z,99747.59
2018-12-16T05:32:52.923Z,99750.15
2018-12-16T05:33:27.523Z,99748.04
2018-12-16T05:34:02.157Z,99742.97
2018-12-16T05:34:36.797Z,99748.91
2018-12-16T05:35:11.698Z,99743.83
2018-12-16T05:35:46.541Z,99743.82
2018-12-16T05:36:21.191Z,99737.48
2018-12-16T05:36:55.795Z,99744.67
2018-12-16T05:37:30.458Z,99747.63
2018-12-16T05:38:05.067Z,99739.15
2018-12-16T05:38:39.839Z,99732.80
2018-12-16T05:39:14.847Z,99733.64
2018-12-16T05:39:49.487Z,99740.00
2018-12-16T05:40:24.103Z,99736.21
2018-12-16T05:40:58.741Z,99734.08
2018-12-16T05:41:33.362Z,99731.12
2018-12-16T05:42:08.083Z,99736.62
2018-12-16T05:42:42.852Z,99734.95
2018-12-16T05:43:17.778Z,99731.14
2018-12-16T05:43:52.489Z,99737.06
2018-12-16T05:44:27.113Z,99735.78
2018-12-16T05:45:01.722Z,99737.05
2018-12-16T05:45:36.294Z,99738.75
2018-12-16T05:46:11.110Z,99731.12
2018-12-16T05:46:46.395Z,99734.51
2018-12-16T05:47:21.096Z,99737.06
2018-12-16T05:47:56.482Z,99734.52
2018-12-16T05:48:31.032Z,99737.91
2018-12-16T05:49:05.660Z,99739.60
2018-12-16T05:49:40.853Z,99734.53
2018-12-16T05:50:15.870Z,99743.81
2018-12-16T05:50:50.497Z,99742.14
2018-12-16T05:51:25.064Z,99747.64
2018-12-16T05:51:59.685Z,99738.31
2018-12-16T05:52:34.316Z,99746.80
2018-12-16T05:53:09.566Z,99737.91
2018-12-16T05:53:48.615Z,99734.92
2018-12-16T05:54:20.917Z,99739.59
2018-12-16T05:54:55.523Z,99739.16
2018-12-16T05:55:30.090Z,99740.43
2018-12-16T05:56:05.126Z,99744.67
2018-12-16T05:56:40.470Z,99742.53
2018-12-16T05:57:15.123Z,99749.34
2018-12-16T05:57:49.761Z,99745.94
2018-12-16T05:58:24.361Z,99738.77
2018-12-16T05:58:58.964Z,99747.20
2018-12-16T05:59:33.647Z,99741.28
2018-12-16T06:00:09.265Z,99749.77
2018-12-16T06:00:44.162Z,99745.94
2018-12-16T06:01:18.834Z,99754.43
2018-12-16T06:01:53.441Z,99745.09
2018-12-16T06:02:28.037Z,99755.27
2018-12-16T06:03:02.732Z,99751.42
2018-12-16T06:03:37.391Z,99753.98
2018-12-16T06:04:12.528Z,99745.53
2018-12-16T06:04:47.394Z,99752.30
2018-12-16T06:05:22.046Z,99757.80
2018-12-16T06:05:56.836Z,99752.28
2018-12-16T06:06:31.430Z,99757.37
2018-12-16T06:07:06.492Z,99761.61
2018-12-16T06:07:41.264Z,99756.08
2018-12-16T06:08:15.900Z,99754.81
2018-12-16T06:08:50.712Z,99753.14
2018-12-16T06:09:25.313Z,99753.58
2018-12-16T06:10:00.210Z,99750.59
2018-12-16T06:10:35.144Z,99752.30
2018-12-16T06:11:09.772Z,99749.33
2018-12-16T06:11:44.687Z,99750.61
2018-12-16T06:12:19.528Z,99745.09
2018-12-16T06:12:54.320Z,99745.95
2018-12-16T06:13:28.908Z,99748.05
2018-12-16T06:14:04.324Z,99745.09
2018-12-16T06:14:39.945Z,99734.50
2018-12-16T06:15:15.283Z,99741.69
2018-12-16T06:15:49.868Z,99732.39
2018-12-16T06:16:24.768Z,99736.63
2018-12-16T06:16:59.674Z,99734.52
2018-12-16T06:17:34.541Z,99738.73
2018-12-16T06:18:09.799Z,99742.12
2018-12-16T06:18:44.780Z,99745.07
2018-12-16T06:19:19.723Z,99748.48
2018-12-16T06:19:54.775Z,99743.80
2018-12-16T06:20:29.665Z,99747.63
2018-12-16T06:21:04.322Z,99752.69
2018-12-16T06:21:39.728Z,99746.77
2018-12-16T06:22:14.732Z,99756.09
2018-12-16T06:22:49.671Z,99752.28
2018-12-16T06:23:30.919Z,99754.81
2018-12-16T06:24:06.252Z,99754.83
2018-12-16T06:24:41.290Z,99756.95
2018-12-16T06:25:16.441Z,99760.33
2018-12-16T06:25:51.344Z,99759.48
2018-12-16T06:26:25.931Z,99762.45
2018-12-16T06:27:00.561Z,99762.03
2018-12-16T06:27:35.186Z,99759.91
2018-12-16T06:28:10.167Z,99764.16
2018-12-16T06:28:44.886Z,99759.47
2018-12-16T06:29:19.523Z,99760.75
2018-12-16T06:29:54.491Z,99755.69
2018-12-16T06:30:32.652Z,99759.06
2018-12-16T06:31:07.275Z,99758.22
2018-12-16T06:31:42.097Z,99759.48
2018-12-16T06:32:16.768Z,99762.87
2018-12-16T06:32:51.659Z,99759.49
2018-12-16T06:33:26.266Z,99765.83
2018-12-16T06:34:00.842Z,99771.77
2018-12-16T06:34:35.452Z,99767.94
2018-12-16T06:35:10.175Z,99769.21
2018-12-16T06:35:45.292Z,99770.05
2018-12-16T06:36:19.930Z,99763.28
2018-12-16T06:36:54.546Z,99769.66
2018-12-16T06:37:29.159Z,99773.86
2018-12-16T06:38:03.783Z,99779.37
2018-12-16T06:38:38.486Z,99774.73
2018-12-16T06:39:13.159Z,99772.59
2018-12-16T06:39:47.974Z,99770.89
2018-12-16T06:40:23.042Z,99769.62
2018-12-16T06:40:57.690Z,99766.22
2018-12-16T06:41:32.453Z,99770.03
2018-12-16T06:42:07.052Z,99767.48
2018-12-16T06:42:41.728Z,99772.14
2018-12-16T06:43:16.350Z,99773.41
2018-12-16T06:43:50.956Z,99771.30
2018-12-16T06:44:25.538Z,99774.23
2018-12-16T06:45:00.158Z,99770.03
2018-12-16T06:45:34.738Z,99771.30
2018-12-16T06:46:09.526Z,99771.75